Time;durP1;ratioP1;P1;durP2;ratioP2;P2;SDS_P1;SDS_P2;PMS_P1;PMS_P2;Temp;Humidity;BMP_temperature;BMP_pressure;BME280_temperature;BME280_humidity;BME280_pressure;Samples;Min_cycle;Max_cycle;Signal;HPM_P1;HPM_P2
2023/06/28 00:01:36;;;;;;;;;0.00;0.00;;;;;12.04;93.42;98226.81;4934916;28;104096;-71
2023/06/28 00:04:15;;;;;;;;;0.00;0.00;;;;;11.98;92.97;98222.25;4933418;28;102094;-72
2023/06/28 00:06:58;;;;;;;;;0.00;0.00;;;;;11.93;94.38;98227.53;4931680;28;104379;-71
2023/06/28 00:09:56;;;;;;;;;0.00;0.00;;;;;11.84;94.68;98226.13;4936326;28;102248;-72
2023/06/28 00:13:06;;;;;;;;;0.00;0.00;;;;;11.81;94.47;98226.56;4933057;28;108742;-70
2023/06/28 00:15:40;;;;;;;;;0.00;0.00;;;;;11.78;94.33;98221.59;4931940;28;102159;-70
2023/06/28 00:18:08;;;;;;;;;0.00;0.00;;;;;11.73;95.81;98222.22;4935383;28;102019;-71
2023/06/28 00:20:35;;;;;;;;;0.00;0.00;;;;;11.73;96.77;98230.34;4933667;28;102135;-71
2023/06/28 00:23:03;;;;;;;;;1.00;0.00;;;;;11.72;95.49;98223.28;4934516;28;104050;-71
2023/06/28 00:25:30;;;;;;;;;0.00;0.00;;;;;11.71;96.02;98215.34;4938072;28;102195;-71
2023/06/28 00:27:57;;;;;;;;;0.00;0.00;;;;;11.71;97.46;98218.06;4939604;28;101845;-70
2023/06/28 00:30:24;;;;;;;;;0.00;0.00;;;;;11.71;96.15;98220.78;4934976;28;102699;-70
2023/06/28 00:32:52;;;;;;;;;0.00;0.00;;;;;11.68;96.82;98222.03;4937016;28;103961;-70
2023/06/28 00:35:19;;;;;;;;;0.00;0.00;;;;;11.66;97.48;98221.44;4935466;28;102259;-70
2023/06/28 00:37:46;;;;;;;;;0.00;0.00;;;;;11.63;97.42;98219.97;4938513;28;102143;-69
2023/06/28 00:40:13;;;;;;;;;0.00;0.00;;;;;11.61;96.87;98216.66;4937887;28;102257;-73
2023/06/28 00:42:40;;;;;;;;;0.00;0.00;;;;;11.61;96.39;98215.81;4936089;28;106386;-70
2023/06/28 00:45:12;;;;;;;;;0.00;0.00;;;;;11.56;95.93;98216.47;4938731;28;103638;-70
2023/06/28 00:47:41;;;;;;;;;0.00;0.00;;;;;11.55;96.78;98217.50;4938257;28;101949;-70
2023/06/28 00:50:09;;;;;;;;;0.00;0.00;;;;;11.51;96.35;98218.16;4938660;28;102475;-70
2023/06/28 00:52:37;;;;;;;;;0.00;0.00;;;;;11.47;95.92;98208.81;4937140;28;105035;-70
2023/06/28 00:55:04;;;;;;;;;0.00;0.00;;;;;11.44;97.00;98210.06;4937825;28;101888;-70
2023/06/28 00:57:31;;;;;;;;;0.00;0.00;;;;;11.44;96.34;98215.47;4931020;28;102300;-71
2023/06/28 00:59:59;;;;;;;;;0.75;0.00;;;;;11.42;97.12;98214.03;4934686;28;102485;-71
2023/06/28 01:02:29;;;;;;;;;0.00;0.00;;;;;11.39;97.00;98209.88;4936132;28;104029;-71
2023/06/28 01:05:09;;;;;;;;;0.00;0.00;;;;;11.37;96.47;98214.69;4936202;28;102248;-71
2023/06/28 01:07:57;;;;;;;;;0.00;0.00;;;;;11.35;96.68;98211.34;4936190;28;102163;-71
2023/06/28 01:10:46;;;;;;;;;0.00;0.00;;;;;11.08;98.26;98182.75;4937803;28;102112;-71
2023/06/28 01:13:32;;;;;;;;;0.00;0.00;;;;;11.19;97.37;98203.75;4935892;28;109364;-70
2023/06/28 01:16:16;;;;;;;;;0.00;0.00;;;;;11.17;97.91;98205.81;4936154;28;101954;-70
2023/06/28 01:18:50;;;;;;;;;0.00;0.00;;;;;11.12;97.58;98203.75;4937957;28;101761;-70
2023/06/28 01:21:18;;;;;;;;;0.00;0.00;;;;;11.09;97.89;98206.06;4942098;28;102132;-71
2023/06/28 01:23:45;;;;;;;;;0.00;0.00;;;;;11.07;98.08;98205.47;4939571;28;108613;-70
2023/06/28 01:26:14;;;;;;;;;0.00;0.00;;;;;11.03;98.13;98198.81;4938374;28;102848;-70
2023/06/28 01:28:42;;;;;;;;;0.00;0.00;;;;;11.01;98.35;98211.72;4936270;28;102221;-71
2023/06/28 01:31:11;;;;;;;;;0.00;0.00;;;;;10.72;98.30;98162.47;4936430;28;102206;-70
2023/06/28 01:34:09;;;;;;;;;0.00;0.00;;;;;10.96;98.42;98198.00;4934276;28;107067;-73
2023/06/28 01:37:17;;;;;;;;;0.00;0.00;;;;;10.90;98.73;98194.25;4931791;28;103211;-72
2023/06/28 01:39:46;;;;;;;;;0.00;0.00;;;;;10.85;99.67;98201.38;4931303;28;102411;-72
2023/06/28 01:42:14;;;;;;;;;0.00;0.00;;;;;10.80;100.00;98202.00;4938063;28;102697;-70
2023/06/28 01:44:41;;;;;;;;;1.00;0.00;;;;;10.82;100.00;98209.88;4936204;28;104229;-70
2023/06/28 01:47:08;;;;;;;;;0.00;0.00;;;;;10.50;100.00;98152.97;4938440;28;102245;-70
2023/06/28 01:49:36;;;;;;;;;0.00;0.00;;;;;10.79;99.80;98200.34;4934404;28;103127;-70
2023/06/28 01:52:04;;;;;;;;;0.00;0.00;;;;;10.64;99.86;98189.75;4939414;28;102042;-70
2023/06/28 01:54:33;;;;;;;;;0.00;0.00;;;;;10.69;100.00;98198.06;4938116;28;104016;-70
2023/06/28 01:57:00;;;;;;;;;0.00;0.00;;;;;10.66;99.70;98194.97;4937989;28;102053;-70
2023/06/28 01:59:27;;;;;;;;;0.00;0.00;;;;;10.58;100.00;98197.91;4937385;28;102128;-71
2023/06/28 02:01:54;;;;;;;;;0.00;0.00;;;;;10.58;100.00;98198.69;4938972;28;102208;-71
2023/06/28 02:04:21;;;;;;;;;0.25;0.25;;;;;10.58;100.00;98195.19;4934207;28;104008;-72
2023/06/28 02:06:48;;;;;;;;;0.00;0.00;;;;;10.59;100.00;98210.34;4938021;28;102232;-71
2023/06/28 02:09:15;;;;;;;;;1.75;1.00;;;;;10.58;100.00;98204.09;4937290;28;102336;-72
2023/06/28 02:11:42;;;;;;;;;0.00;0.00;;;;;10.59;100.00;98199.53;4935958;28;102337;-72
2023/06/28 02:14:09;;;;;;;;;0.00;0.00;;;;;10.55;100.00;98215.34;4933797;28;104104;-70
2023/06/28 02:16:37;;;;;;;;;0.00;0.00;;;;;10.48;100.00;98203.72;4934771;28;102119;-72
2023/06/28 02:19:04;;;;;;;;;0.00;0.00;;;;;10.43;100.00;98200.81;4934432;28;102198;-70
2023/06/28 02:21:31;;;;;;;;;0.00;0.00;;;;;10.42;100.00;98201.88;4938140;28;102367;-70
2023/06/28 02:23:58;;;;;;;;;0.50;0.50;;;;;10.39;100.00;98199.59;4936919;28;104013;-71
2023/06/28 02:26:59;;;;;;;;;0.00;0.00;;;;;10.38;100.00;98199.78;4936691;28;102331;-70
2023/06/28 02:29:41;;;;;;;;;0.00;0.00;;;;;10.35;100.00;98198.34;4933004;28;102344;-70
2023/06/28 02:32:08;;;;;;;;;0.00;0.00;;;;;10.33;100.00;98200.41;4937516;28;102125;-70
2023/06/28 02:34:35;;;;;;;;;0.00;0.00;;;;;10.28;100.00;98198.34;4934765;28;104039;-70
2023/06/28 02:37:02;;;;;;;;;0.00;0.00;;;;;10.19;100.00;98191.47;4936319;28;102323;-71
2023/06/28 02:39:29;;;;;;;;;0.00;0.00;;;;;10.29;100.00;98204.56;4934906;28;103133;-70
2023/06/28 02:41:56;;;;;;;;;1.00;0.00;;;;;10.32;100.00;98206.03;4935297;28;102634;-70
2023/06/28 02:44:23;;;;;;;;;1.00;1.00;;;;;10.29;100.00;98200.00;4936333;28;104024;-70
2023/06/28 02:46:50;;;;;;;;;0.00;0.00;;;;;10.35;100.00;98203.75;4932443;28;102138;-70
2023/06/28 02:49:17;;;;;;;;;0.75;0.75;;;;;10.32;100.00;98201.44;4939930;28;102008;-70
2023/06/28 02:51:44;;;;;;;;;0.00;0.00;;;;;10.32;100.00;98208.72;4937804;28;102669;-71
2023/06/28 02:54:11;;;;;;;;;1.00;0.00;;;;;10.33;100.00;98211.22;4936148;28;104064;-71
2023/06/28 02:56:38;;;;;;;;;2.00;0.00;;;;;10.34;100.00;98204.78;4935203;28;103610;-71
2023/06/28 02:59:05;;;;;;;;;0.00;0.00;;;;;10.34;100.00;98204.78;4936280;28;102200;-71
2023/06/28 03:01:32;;;;;;;;;0.00;0.00;;;;;10.32;100.00;98204.16;4937413;28;102841;-71
2023/06/28 03:03:59;;;;;;;;;0.00;0.00;;;;;10.35;100.00;98202.91;4934049;28;103997;-71
2023/06/28 03:06:26;;;;;;;;;0.00;0.00;;;;;10.39;100.00;98206.84;4936398;28;102074;-71
2023/06/28 03:08:53;;;;;;;;;0.00;0.00;;;;;10.44;100.00;98209.78;4936908;28;102017;-71
2023/06/28 03:11:20;;;;;;;;;0.00;0.00;;;;;10.46;100.00;98208.50;4935928;28;102441;-71
2023/06/28 03:13:47;;;;;;;;;0.00;0.00;;;;;10.23;100.00;98167.56;4938453;28;103985;-71
2023/06/28 03:16:15;;;;;;;;;1.00;0.50;;;;;10.49;100.00;98199.16;4938107;28;102165;-71
2023/06/28 03:18:42;;;;;;;;;0.00;0.00;;;;;10.51;100.00;98202.47;4935711;28;103049;-70
2023/06/28 03:21:09;;;;;;;;;0.00;0.00;;;;;10.51;100.00;98203.31;4936216;28;102049;-70
2023/06/28 03:23:39;;;;;;;;;0.00;0.00;;;;;10.54;100.00;98202.88;4934117;28;104040;-70
2023/06/28 03:26:06;;;;;;;;;0.00;0.00;;;;;10.52;100.00;98204.13;4938265;28;102102;-70
2023/06/28 03:28:33;;;;;;;;;0.00;0.00;;;;;10.53;100.00;98195.84;4934781;28;106657;-70
2023/06/28 03:31:00;;;;;;;;;0.00;0.00;;;;;10.57;100.00;98197.06;4936450;28;102763;-70
2023/06/28 03:33:27;;;;;;;;;0.00;0.00;;;;;10.60;100.00;98196.63;4934046;28;104152;-70
2023/06/28 03:35:54;;;;;;;;;0.25;0.25;;;;;10.61;100.00;98203.72;4935961;28;102053;-70
2023/06/28 03:38:21;;;;;;;;;0.00;0.00;;;;;10.66;100.00;98197.66;4935733;28;102176;-70
2023/06/28 03:40:48;;;;;;;;;0.00;0.00;;;;;10.70;100.00;98212.44;4937598;28;106452;-70
2023/06/28 03:43:15;;;;;;;;;0.00;0.00;;;;;10.72;100.00;98203.03;4935927;28;108991;-71
2023/06/28 03:45:42;;;;;;;;;0.00;0.00;;;;;10.80;100.00;98214.69;4936268;28;103545;-70
2023/06/28 03:48:09;;;;;;;;;0.00;0.00;;;;;10.85;100.00;98213.00;4934577;28;102034;-70
2023/06/28 03:50:36;;;;;;;;;0.00;0.00;;;;;10.93;100.00;98217.38;4934323;28;103441;-70
2023/06/28 03:53:03;;;;;;;;;0.50;0.00;;;;;11.00;100.00;98215.47;4931798;28;104026;-71
2023/06/28 03:55:30;;;;;;;;;0.00;0.00;;;;;11.04;100.00;98209.41;4931652;28;102247;-71
2023/06/28 03:57:58;;;;;;;;;0.00;0.00;;;;;11.12;100.00;98205.66;4932135;28;102528;-71
2023/06/28 04:00:25;;;;;;;;;0.25;0.00;;;;;11.29;100.00;98220.34;4933804;28;102267;-71
2023/06/28 04:02:52;;;;;;;;;0.00;0.00;;;;;11.37;100.00;98216.56;4931679;28;104194;-71
2023/06/28 04:05:19;;;;;;;;;0.00;0.00;;;;;11.49;100.00;98218.38;4932799;28;103334;-69
2023/06/28 04:07:54;;;;;;;;;1.00;0.00;;;;;11.56;100.00;98219.19;4930888;28;102259;-72
2023/06/28 04:10:21;;;;;;;;;0.00;0.00;;;;;11.70;99.85;98227.22;4944974;28;102418;-70
2023/06/28 04:12:48;;;;;;;;;1.00;1.00;;;;;11.80;99.16;98222.19;4930851;28;104021;-68
2023/06/28 04:15:15;;;;;;;;;0.00;0.00;;;;;11.90;98.77;98225.25;4934385;28;101935;-71
2023/06/28 04:17:42;;;;;;;;;1.00;1.00;;;;;11.87;97.68;98206.72;4929483;28;102078;-71
2023/06/28 04:20:10;;;;;;;;;1.25;1.00;;;;;12.12;97.65;98229.25;4933062;28;102846;-70
2023/06/28 04:22:37;;;;;;;;;0.25;0.25;;;;;12.29;96.46;98224.94;4932689;28;104211;-71
2023/06/28 04:25:04;;;;;;;;;1.00;1.00;;;;;12.45;95.07;98221.69;4930151;28;102199;-71
2023/06/28 04:27:31;;;;;;;;;2.00;2.00;;;;;12.65;94.98;98226.94;4933325;28;102083;-71
2023/06/28 04:29:58;;;;;;;;;2.00;2.00;;;;;12.83;94.40;98223.44;4930575;28;102502;-71
2023/06/28 04:32:26;;;;;;;;;2.50;2.50;;;;;12.75;92.92;98175.69;4934046;28;104022;-71
2023/06/28 04:34:55;;;;;;;;;2.50;2.00;;;;;13.26;91.86;98216.06;4915381;28;102488;-70
2023/06/28 04:37:26;;;;;;;;;3.00;2.00;;;;;13.45;91.50;98207.91;4933070;28;103956;-71
2023/06/28 04:39:54;;;;;;;;;1.75;1.75;;;;;13.58;90.49;98216.72;4934851;28;101989;-72
2023/06/28 04:42:21;;;;;;;;;2.00;2.00;;;;;13.64;88.29;98223.13;4935051;28;104072;-72
2023/06/28 04:44:48;;;;;;;;;1.75;1.75;;;;;13.80;88.90;98217.84;4929177;28;104231;-69
2023/06/28 04:47:17;;;;;;;;;1.00;1.00;;;;;14.02;87.37;98225.47;4934576;28;102751;-71
2023/06/28 04:49:48;;;;;;;;;3.50;1.50;;;;;14.19;87.81;98221.84;4927097;28;102161;-72
2023/06/28 04:52:19;;;;;;;;;2.75;2.75;;;;;14.34;85.92;98215.16;4932231;28;108642;-70
2023/06/28 04:54:47;;;;;;;;;3.25;3.00;;;;;14.49;84.00;98218.28;4933579;28;102374;-71
2023/06/28 04:57:16;;;;;;;;;3.00;2.00;;;;;14.82;82.79;98223.94;4931488;28;102451;-71
2023/06/28 04:59:43;;;;;;;;;4.00;3.75;;;;;14.99;83.15;98222.19;4930750;28;102157;-72
2023/06/28 05:02:10;;;;;;;;;3.25;3.25;;;;;15.14;80.12;98227.13;4932379;28;104076;-71
2023/06/28 05:04:39;;;;;;;;;3.00;3.00;;;;;15.18;81.35;98231.00;4930288;28;102217;-71
2023/06/28 05:07:07;;;;;;;;;2.75;2.50;;;;;15.11;81.07;98223.00;4930338;28;102377;-71
2023/06/28 05:09:36;;;;;;;;;3.00;2.75;;;;;14.69;80.06;98207.84;4931760;28;103502;-71
2023/06/28 05:12:03;;;;;;;;;3.00;2.00;;;;;14.50;82.71;98211.78;4932865;28;104246;-72
2023/06/28 05:14:31;;;;;;;;;2.00;1.50;;;;;14.57;82.46;98220.66;4940957;28;102346;-71
2023/06/28 05:16:58;;;;;;;;;1.00;1.00;;;;;14.54;82.89;98199.38;4940927;28;103033;-71
2023/06/28 05:19:26;;;;;;;;;1.00;1.00;;;;;14.76;83.41;98224.09;4940971;28;102143;-71
2023/06/28 05:21:54;;;;;;;;;2.00;2.00;;;;;14.96;82.37;98217.19;4940155;28;103995;-72
2023/06/28 05:24:20;;;;;;;;;1.00;1.00;;;;;15.10;82.10;98207.72;4939459;28;102375;-71
2023/06/28 05:26:48;;;;;;;;;1.00;1.00;;;;;15.26;82.29;98221.66;4942636;28;102394;-71
2023/06/28 05:29:15;;;;;;;;;1.00;1.00;;;;;15.55;79.99;98207.03;4939182;28;101972;-71
2023/06/28 05:31:42;;;;;;;;;3.00;2.00;;;;;15.67;78.67;98210.53;4938459;28;104056;-71
2023/06/28 05:34:11;;;;;;;;;2.75;2.00;;;;;15.62;79.95;98213.19;4939039;28;107341;-71
2023/06/28 05:36:39;;;;;;;;;2.25;2.00;;;;;15.28;78.47;98214.06;4937839;28;102383;-71
2023/06/28 05:39:06;;;;;;;;;2.00;2.00;;;;;14.91;81.93;98216.25;4940899;28;102146;-70
2023/06/28 05:41:36;;;;;;;;;2.00;2.00;;;;;15.00;82.29;98221.09;4940004;28;103999;-72
2023/06/28 05:44:03;;;;;;;;;3.00;2.00;;;;;14.95;80.94;98214.72;4939702;28;103094;-71
2023/06/28 05:46:30;;;;;;;;;1.00;1.00;;;;;14.97;82.17;98207.13;4940786;28;102097;-71
2023/06/28 05:48:58;;;;;;;;;1.25;1.25;;;;;14.87;80.81;98218.63;4944005;28;102033;-72
2023/06/28 05:51:26;;;;;;;;;3.00;2.00;;;;;14.74;82.71;98218.88;4939829;28;103988;-70
2023/06/28 05:53:53;;;;;;;;;3.00;3.00;;;;;14.77;83.25;98223.03;4937054;28;102989;-73
2023/06/28 05:56:19;;;;;;;;;1.25;1.00;;;;;14.93;83.45;98217.69;4939700;28;102207;-69
2023/06/28 05:58:46;;;;;;;;;1.00;1.00;;;;;14.89;82.97;98227.41;4942900;28;102638;-70
2023/06/28 06:01:13;;;;;;;;;4.75;4.75;;;;;14.68;82.04;98223.34;4936612;28;108799;-73
2023/06/28 06:03:41;;;;;;;;;3.00;3.00;;;;;14.61;83.49;98222.66;4939921;28;102009;-71
2023/06/28 06:06:08;;;;;;;;;2.75;2.75;;;;;14.67;82.57;98223.63;4938693;28;102933;-70
2023/06/28 06:08:35;;;;;;;;;3.00;2.00;;;;;14.83;84.36;98217.44;4941113;28;102158;-70
2023/06/28 06:11:03;;;;;;;;;2.00;2.00;;;;;15.04;84.32;98211.38;4938783;28;103988;-71
2023/06/28 06:13:30;;;;;;;;;3.00;3.00;;;;;15.35;81.88;98210.16;4940342;28;102460;-71
2023/06/28 06:15:58;;;;;;;;;2.00;2.00;;;;;15.84;80.45;98205.16;4938451;28;102166;-73
2023/06/28 06:18:25;;;;;;;;;2.00;2.00;;;;;15.98;78.59;98211.97;4940705;28;102057;-71
2023/06/28 06:20:52;;;;;;;;;2.00;2.00;;;;;15.91;78.84;98214.81;4940032;28;104004;-71
2023/06/28 06:23:19;;;;;;;;;3.75;3.75;;;;;15.83;79.13;98217.13;4940473;28;102242;-69
2023/06/28 06:25:46;;;;;;;;;3.25;2.00;;;;;15.69;80.16;98215.75;4940958;28;102565;-71
2023/06/28 06:28:13;;;;;;;;;2.00;2.00;;;;;15.78;79.54;98212.38;4940409;28;102184;-71
2023/06/28 06:30:40;;;;;;;;;2.00;2.00;;;;;16.40;78.71;98201.47;4938155;28;104008;-70
2023/06/28 06:33:10;;;;;;;;;1.00;1.00;;;;;16.72;76.54;98199.84;4940319;28;102115;-71
2023/06/28 06:35:37;;;;;;;;;3.50;3.50;;;;;16.62;76.30;98201.56;4936600;28;102601;-72
2023/06/28 06:38:04;;;;;;;;;2.00;2.00;;;;;16.73;75.24;98198.78;4939893;28;102341;-71
2023/06/28 06:40:33;;;;;;;;;2.33;2.00;;;;;16.86;74.80;98201.16;4939015;28;104123;-72
2023/06/28 06:43:00;;;;;;;;;3.00;2.33;;;;;17.12;74.57;98188.66;4939392;28;102415;-71
2023/06/28 06:45:27;;;;;;;;;2.00;2.00;;;;;17.36;73.40;98189.25;4936826;28;102044;-72
2023/06/28 06:47:54;;;;;;;;;3.00;2.00;;;;;17.67;71.91;98183.09;4940384;28;102022;-72
2023/06/28 06:50:22;;;;;;;;;4.00;4.00;;;;;17.70;71.46;98179.81;4939119;28;103954;-75
2023/06/28 06:52:50;;;;;;;;;3.00;3.00;;;;;17.86;72.48;98186.31;4937960;28;102266;-70
2023/06/28 06:55:17;;;;;;;;;1.00;1.00;;;;;18.20;70.97;98195.94;4938453;28;107952;-71
2023/06/28 06:57:44;;;;;;;;;3.00;3.00;;;;;18.22;70.83;98191.03;4941632;28;102109;-71
2023/06/28 07:00:12;;;;;;;;;4.00;4.00;;;;;17.92;69.69;98192.66;4937500;28;104133;-71
2023/06/28 07:02:39;;;;;;;;;3.33;3.00;;;;;17.81;69.97;98198.00;4935965;28;103731;-71
2023/06/28 07:05:07;;;;;;;;;3.00;3.00;;;;;17.69;70.01;98201.97;4938600;28;103181;-72
2023/06/28 07:07:34;;;;;;;;;4.00;4.00;;;;;17.16;71.87;98210.84;4940499;28;102225;-74
2023/06/28 07:10:01;;;;;;;;;5.67;4.00;;;;;16.90;72.61;98210.50;4938810;28;104035;-71
2023/06/28 07:12:28;;;;;;;;;3.33;3.33;;;;;16.75;73.81;98204.00;4936056;28;102822;-71
2023/06/28 07:14:55;;;;;;;;;4.00;4.00;;;;;16.51;75.96;98192.38;4938318;28;102022;-71
2023/06/28 07:17:22;;;;;;;;;2.33;2.33;;;;;16.78;74.32;98196.13;4940195;28;102543;-70
2023/06/28 07:19:49;;;;;;;;;3.33;3.33;;;;;17.33;74.04;98200.69;4938789;28;104049;-71
2023/06/28 07:22:16;;;;;;;;;5.67;5.00;;;;;17.05;71.12;98192.66;4942438;28;103025;-72
2023/06/28 07:24:43;;;;;;;;;4.67;4.67;;;;;17.57;72.81;98191.13;4941988;28;101911;-71
2023/06/28 07:27:10;;;;;;;;;2.67;2.00;;;;;17.91;72.64;98183.63;4939664;28;102001;-71
2023/06/28 07:29:37;;;;;;;;;3.00;2.67;;;;;18.03;69.60;98188.94;4938303;28;104019;-71
2023/06/28 07:32:05;;;;;;;;;3.00;3.00;;;;;17.98;69.50;98195.16;4938888;28;102013;-71
2023/06/28 07:34:32;;;;;;;;;2.00;2.00;;;;;18.07;68.63;98187.31;4937074;28;102016;-71
2023/06/28 07:37:01;;;;;;;;;1.33;1.33;;;;;18.09;68.68;98190.63;4935614;28;106861;-71
2023/06/28 07:39:30;;;;;;;;;3.00;2.00;;;;;18.14;67.98;98193.41;4939498;28;104145;-73
2023/06/28 07:41:57;;;;;;;;;2.00;2.00;;;;;18.43;69.99;98183.81;4952347;28;102155;-71
2023/06/28 07:44:24;;;;;;;;;2.00;1.00;;;;;18.65;66.39;98181.00;4938854;28;102243;-70
2023/06/28 07:46:51;;;;;;;;;1.00;1.00;;;;;18.71;68.10;98180.78;4939715;28;102476;-71
2023/06/28 07:49:18;;;;;;;;;3.00;3.00;;;;;18.27;65.59;98174.66;4939280;28;103991;-71
2023/06/28 07:51:45;;;;;;;;;2.33;2.00;;;;;18.42;68.41;98182.16;4939390;28;101912;-71
2023/06/28 07:54:12;;;;;;;;;4.00;3.67;;;;;18.21;69.26;98174.88;4937933;28;101982;-71
2023/06/28 07:56:54;;;;;;;;;4.00;4.00;;;;;18.31;67.13;98180.44;4936116;28;101987;-71
2023/06/28 07:59:21;;;;;;;;;4.00;3.00;;;;;18.28;66.44;98176.28;4938106;28;103396;-71
2023/06/28 08:01:49;;;;;;;;;6.00;5.00;;;;;18.14;67.15;98179.75;4939160;28;102271;-72
2023/06/28 08:04:17;;;;;;;;;5.00;4.00;;;;;17.83;70.91;98184.09;4938354;28;102060;-72
2023/06/28 08:06:44;;;;;;;;;4.00;4.00;;;;;17.90;70.23;98178.41;4938104;28;102367;-71
2023/06/28 08:09:11;;;;;;;;;5.00;3.67;;;;;18.16;70.08;98166.59;4938309;28;103997;-71
2023/06/28 08:11:38;;;;;;;;;5.00;4.00;;;;;18.09;67.16;98176.94;4938004;28;102970;-71
2023/06/28 08:14:05;;;;;;;;;3.00;3.00;;;;;18.28;66.60;98167.28;4937967;28;102268;-71
2023/06/28 08:16:33;;;;;;;;;2.00;2.00;;;;;18.64;65.73;98169.22;4937724;28;101937;-71
2023/06/28 08:19:00;;;;;;;;;2.00;2.00;;;;;18.55;65.20;98159.03;4934998;28;104016;-70
2023/06/28 08:21:27;;;;;;;;;1.67;1.67;;;;;18.57;64.82;98165.88;4937404;28;102257;-70
2023/06/28 08:23:54;;;;;;;;;5.00;5.00;;;;;18.24;67.17;98157.91;4937660;28;101935;-71
2023/06/28 08:26:22;;;;;;;;;3.67;3.67;;;;;18.63;65.50;98155.78;4937893;28;102338;-71
2023/06/28 08:28:49;;;;;;;;;3.00;3.00;;;;;18.55;65.35;98146.13;4937940;28;104035;-70
2023/06/28 08:31:26;;;;;;;;;2.00;2.00;;;;;18.15;67.30;98159.47;4936801;28;101908;-70
2023/06/28 08:33:53;;;;;;;;;3.00;3.00;;;;;17.93;66.87;98151.34;4938016;28;102118;-72
2023/06/28 08:36:21;;;;;;;;;3.33;3.33;;;;;17.82;68.11;98155.09;4939709;28;102121;-71
2023/06/28 08:38:48;;;;;;;;;2.00;2.00;;;;;18.02;67.38;98147.06;4939456;28;103969;-72
2023/06/28 08:41:17;;;;;;;;;2.00;2.00;;;;;18.51;67.47;98147.72;4934662;28;102256;-71
2023/06/28 08:43:49;;;;;;;;;3.00;3.00;;;;;18.71;68.12;98147.91;4936273;28;102020;-71
2023/06/28 08:46:17;;;;;;;;;3.00;2.00;;;;;18.47;66.88;98152.06;4942346;28;102236;-71
2023/06/28 08:48:45;;;;;;;;;2.67;2.00;;;;;18.14;67.39;98146.91;4937529;28;105945;-71
2023/06/28 08:51:15;;;;;;;;;2.33;2.33;;;;;18.04;68.29;98135.88;4940437;28;102627;-72
2023/06/28 08:53:46;;;;;;;;;2.00;2.00;;;;;17.89;70.06;98139.28;4933588;28;101825;-71
2023/06/28 08:56:15;;;;;;;;;2.00;2.00;;;;;17.80;68.55;98141.66;4936327;28;102142;-71
2023/06/28 08:58:44;;;;;;;;;2.00;2.00;;;;;17.79;70.63;98145.47;4940379;28;104022;-70
2023/06/28 09:01:14;;;;;;;;;1.00;1.00;;;;;17.75;68.82;98132.56;4937898;28;102191;-70
2023/06/28 09:03:43;;;;;;;;;1.00;1.00;;;;;17.72;67.72;98133.09;4937351;28;102133;-71
2023/06/28 09:06:11;;;;;;;;;1.33;1.33;;;;;17.69;68.00;98133.63;4938588;28;102453;-70
2023/06/28 09:08:39;;;;;;;;;1.00;1.00;;;;;17.81;68.85;98132.38;4939484;28;103953;-70
2023/06/28 09:11:06;;;;;;;;;1.00;1.00;;;;;17.99;68.97;98124.88;4941140;28;102282;-70
2023/06/28 09:13:34;;;;;;;;;2.67;2.00;;;;;18.29;67.87;98119.63;4936861;28;102002;-71
2023/06/28 09:16:02;;;;;;;;;2.00;2.00;;;;;18.42;63.64;98119.19;4941931;28;102326;-71
2023/06/28 09:18:29;;;;;;;;;1.67;1.67;;;;;18.67;62.62;98119.41;4939393;28;104043;-70
2023/06/28 09:20:56;;;;;;;;;2.00;2.00;;;;;18.59;61.02;98110.88;4939547;28;102748;-71
2023/06/28 09:23:25;;;;;;;;;3.00;3.00;;;;;18.21;62.77;98120.13;4939325;28;102310;-71
2023/06/28 09:25:53;;;;;;;;;3.00;3.00;;;;;18.15;62.15;98127.47;4941726;28;102046;-71
2023/06/28 09:28:22;;;;;;;;;2.00;2.00;;;;;17.95;63.10;98126.47;4940677;28;104028;-70
2023/06/28 09:30:54;;;;;;;;;2.00;2.00;;;;;17.71;63.99;98140.47;4940126;28;102044;-74
2023/06/28 09:33:22;;;;;;;;;3.67;3.00;;;;;17.64;63.91;98137.13;4939982;28;101779;-71
2023/06/28 09:35:56;;;;;;;;;2.67;2.00;;;;;17.59;64.16;98134.34;4941466;28;102554;-71
2023/06/28 09:38:23;;;;;;;;;2.67;2.67;;;;;17.57;64.54;98135.63;4937966;28;104354;-72
2023/06/28 09:40:57;;;;;;;;;2.00;2.00;;;;;17.53;66.12;98126.28;4940708;28;102314;-70
2023/06/28 09:43:30;;;;;;;;;2.00;2.00;;;;;17.33;67.71;98107.78;4939715;28;103345;-72
2023/06/28 09:46:16;;;;;;;;;3.33;3.00;;;;;17.28;68.64;98135.06;4941970;28;102298;-72
2023/06/28 09:48:45;;;;;;;;;2.00;2.00;;;;;17.24;69.33;98147.56;4937490;28;104182;-71
2023/06/28 09:51:15;;;;;;;;;1.33;1.33;;;;;17.09;70.39;98148.19;4936912;28;101984;-70
2023/06/28 09:53:53;;;;;;;;;2.67;2.67;;;;;16.98;72.60;98142.84;4937028;28;101938;-71
2023/06/28 09:56:22;;;;;;;;;3.67;3.00;;;;;16.74;72.76;98153.19;4937126;28;102258;-71
2023/06/28 09:58:50;;;;;;;;;3.00;3.00;;;;;16.58;75.56;98154.84;4941673;28;107911;-71
2023/06/28 10:01:17;;;;;;;;;4.00;4.00;;;;;16.42;76.75;98155.69;4939857;28;101828;-71
2023/06/28 10:03:44;;;;;;;;;3.00;3.00;;;;;16.56;77.21;98157.00;4938567;28;101902;-72
2023/06/28 10:06:13;;;;;;;;;2.00;2.00;;;;;16.62;74.97;98146.97;4940566;28;102424;-73
2023/06/28 10:08:41;;;;;;;;;2.00;2.00;;;;;16.99;77.48;98144.50;4937121;28;104353;-71
2023/06/28 10:11:15;;;;;;;;;2.00;2.00;;;;;17.23;76.56;98145.91;4936165;28;101848;-71
2023/06/28 10:13:46;;;;;;;;;3.00;3.00;;;;;17.06;74.24;98145.16;4939481;28;101894;-71
2023/06/28 10:16:24;;;;;;;;;3.00;3.00;;;;;16.81;73.09;98137.44;4937605;28;102094;-72
2023/06/28 10:18:51;;;;;;;;;3.00;3.00;;;;;16.93;70.71;98146.38;4936919;28;108750;-70
2023/06/28 10:21:18;;;;;;;;;2.00;2.00;;;;;16.90;69.34;98144.13;4942257;28;102487;-71
2023/06/28 10:23:47;;;;;;;;;2.00;2.00;;;;;16.77;68.53;98144.47;4940207;28;102177;-73
2023/06/28 10:26:16;;;;;;;;;0.00;0.00;;;;;16.80;70.11;98139.34;4941078;28;102468;-71
2023/06/28 10:28:44;;;;;;;;;1.00;1.00;;;;;16.87;69.95;98136.44;4938750;28;104137;-71
2023/06/28 10:31:13;;;;;;;;;1.00;1.00;;;;;16.92;69.83;98140.06;4935736;28;102340;-73
2023/06/28 10:33:40;;;;;;;;;2.00;2.00;;;;;17.02;70.04;98131.16;4937948;28;102176;-72
2023/06/28 10:36:07;;;;;;;;;1.00;1.00;;;;;17.37;69.04;98125.31;4938871;28;102128;-71
2023/06/28 10:38:41;;;;;;;;;2.00;2.00;;;;;17.75;69.12;98117.00;4938667;28;104049;-70
2023/06/28 10:41:12;;;;;;;;;1.00;1.00;;;;;17.89;67.15;98122.88;4938160;28;102155;-72
2023/06/28 10:43:40;;;;;;;;;1.67;1.67;;;;;18.15;64.72;98110.22;4937207;28;102324;-72
2023/06/28 10:46:26;;;;;;;;;0.00;0.00;;;;;18.31;67.08;98101.06;4940249;28;102076;-71
2023/06/28 10:48:55;;;;;;;;;1.00;1.00;;;;;18.62;67.05;98100.19;4932197;28;107912;-72
2023/06/28 10:51:29;;;;;;;;;1.00;1.00;;;;;18.88;63.93;98086.63;4939708;28;102038;-71
2023/06/28 10:54:12;;;;;;;;;2.00;2.00;;;;;19.08;65.45;98075.75;4939621;28;102193;-71
2023/06/28 10:56:50;;;;;;;;;1.67;1.67;;;;;19.27;62.85;98071.44;4937172;28;106510;-71
2023/06/28 10:59:18;;;;;;;;;2.67;2.00;;;;;19.22;64.06;98087.06;4935819;28;108240;-72
2023/06/28 11:01:48;;;;;;;;;2.00;2.00;;;;;18.97;63.38;98088.59;4937775;28;101966;-72
2023/06/28 11:04:16;;;;;;;;;3.00;3.00;;;;;18.70;61.48;98104.34;4938658;28;102050;-72
2023/06/28 11:06:43;;;;;;;;;4.00;4.00;;;;;17.46;60.90;98036.31;4939216;28;102395;-73
2023/06/28 11:09:19;;;;;;;;;3.00;3.00;;;;;17.69;64.91;98117.22;4931722;28;104179;-71
2023/06/28 11:11:57;;;;;;;;;3.00;3.00;;;;;17.65;65.64;98127.81;4937486;28;102020;-72
2023/06/28 11:14:32;;;;;;;;;2.67;2.00;;;;;17.52;68.81;98128.19;4933411;28;102312;-71
2023/06/28 11:17:11;;;;;;;;;2.67;2.00;;;;;17.40;68.83;98124.78;4937325;28;102346;-71
2023/06/28 11:19:39;;;;;;;;;1.33;1.33;;;;;17.51;70.19;98120.28;4936866;28;104012;-71
2023/06/28 11:22:06;;;;;;;;;3.00;2.00;;;;;17.57;71.79;98113.75;4937506;28;101885;-71
2023/06/28 11:24:34;;;;;;;;;2.00;1.00;;;;;17.65;70.51;98121.56;4935796;28;101945;-71
2023/06/28 11:27:09;;;;;;;;;2.00;2.00;;;;;17.66;69.39;98120.44;4939215;28;102004;-72
2023/06/28 11:29:58;;;;;;;;;1.00;1.00;;;;;17.80;72.51;98118.94;4934000;28;104103;-71
2023/06/28 11:32:27;;;;;;;;;1.00;1.00;;;;;17.96;71.95;98123.50;4935654;28;102133;-71
2023/06/28 11:34:56;;;;;;;;;0.33;0.00;;;;;18.14;70.55;98125.00;4936406;28;102185;-72